sensor_id;sensor_type;location;lat;lon;timestamp;pressure;altitude;pressure_sealevel;temperature;humidity
49825;BME280;35714;55.708;37.478;2023-06-24T00:01:52;98764.25;;;17.11;77.76
49825;BME280;35714;55.708;37.478;2023-06-24T00:04:17;98759.59;;;17.12;78.31
49825;BME280;35714;55.708;37.478;2023-06-24T00:06:45;98755.72;;;17.13;78.47
49825;BME280;35714;55.708;37.478;2023-06-24T00:09:11;98755.72;;;17.13;78.15
49825;BME280;35714;55.708;37.478;2023-06-24T00:11:37;98753.06;;;17.08;77.98
49825;BME280;35714;55.708;37.478;2023-06-24T00:14:02;98754.94;;;17.12;78.37
49825;BME280;35714;55.708;37.478;2023-06-24T00:16:28;98753.56;;;17.10;78.01
49825;BME280;35714;55.708;37.478;2023-06-24T00:18:55;98758.53;;;17.08;78.52
49825;BME280;35714;55.708;37.478;2023-06-24T00:21:26;98749.56;;;17.02;78.52
49825;BME280;35714;55.708;37.478;2023-06-24T00:23:58;98754.81;;;16.99;78.52
49825;BME280;35714;55.708;37.478;2023-06-24T00:26:25;98747.50;;;16.94;78.73
49825;BME280;35714;55.708;37.478;2023-06-24T00:28:50;98747.78;;;16.92;78.71
49825;BME280;35714;55.708;37.478;2023-06-24T00:31:16;98751.69;;;16.86;78.53
49825;BME280;35714;55.708;37.478;2023-06-24T00:33:42;98748.41;;;16.84;78.98
49825;BME280;35714;55.708;37.478;2023-06-24T00:36:08;98748.41;;;16.84;79.07
49825;BME280;35714;55.708;37.478;2023-06-24T00:38:38;98742.16;;;16.78;79.37
49825;BME280;35714;55.708;37.478;2023-06-24T00:41:04;98740.31;;;16.74;79.14
49825;BME280;35714;55.708;37.478;2023-06-24T00:43:30;98746.91;;;16.73;79.19
49825;BME280;35714;55.708;37.478;2023-06-24T00:45:57;98744.47;;;16.71;79.15
49825;BME280;35714;55.708;37.478;2023-06-24T00:48:23;98744.78;;;16.65;79.30
49825;BME280;35714;55.708;37.478;2023-06-24T00:50:50;98732.25;;;16.64;79.59
49825;BME280;35714;55.708;37.478;2023-06-24T00:53:16;98732.81;;;16.60;79.54
49825;BME280;35714;55.708;37.478;2023-06-24T00:55:43;98730.66;;;16.57;79.58
49825;BME280;35714;55.708;37.478;2023-06-24T00:58:14;98729.00;;;16.62;79.96
49825;BME280;35714;55.708;37.478;2023-06-24T01:00:44;98729.56;;;16.58;79.78
49825;BME280;35714;55.708;37.478;2023-06-24T01:03:12;98736.66;;;16.59;80.05
49825;BME280;35714;55.708;37.478;2023-06-24T01:05:40;98736.66;;;16.59;80.30
49825;BME280;35714;55.708;37.478;2023-06-24T01:08:07;98730.81;;;16.66;80.69
49825;BME280;35714;55.708;37.478;2023-06-24T01:10:32;98734.09;;;16.68;80.54
49825;BME280;35714;55.708;37.478;2023-06-24T01:12:58;98735.59;;;16.80;79.72
49825;BME280;35714;55.708;37.478;2023-06-24T01:15:24;98739.09;;;16.85;79.42
49825;BME280;35714;55.708;37.478;2023-06-24T01:18:00;98744.81;;;16.89;79.47
49825;BME280;35714;55.708;37.478;2023-06-24T01:21:15;98743.94;;;16.93;79.42
49825;BME280;35714;55.708;37.478;2023-06-24T01:29:09;98744.25;;;17.11;77.95
49825;BME280;35714;55.708;37.478;2023-06-24T01:37:36;98750.41;;;17.22;77.38
49825;BME280;35714;55.708;37.478;2023-06-24T01:40:10;98749.00;;;17.24;77.84
49825;BME280;35714;55.708;37.478;2023-06-24T01:42:41;98734.72;;;17.27;76.89
49825;BME280;35714;55.708;37.478;2023-06-24T01:45:14;98749.97;;;17.34;76.62
49825;BME280;35714;55.708;37.478;2023-06-24T01:47:46;98754.03;;;17.36;75.40
49825;BME280;35714;55.708;37.478;2023-06-24T01:50:13;98743.16;;;17.31;75.52
49825;BME280;35714;55.708;37.478;2023-06-24T01:52:43;98753.75;;;17.38;75.62
49825;BME280;35714;55.708;37.478;2023-06-24T01:55:11;98767.97;;;17.40;74.98
49825;BME280;35714;55.708;37.478;2023-06-24T01:57:40;98754.94;;;17.31;73.51
49825;BME280;35714;55.708;37.478;2023-06-24T02:00:08;98759.91;;;17.29;73.30
49825;BME280;35714;55.708;37.478;2023-06-24T02:02:49;98764.34;;;17.25;72.08
49825;BME280;35714;55.708;37.478;2023-06-24T02:05:17;98758.44;;;17.18;72.12
49825;BME280;35714;55.708;37.478;2023-06-24T02:07:46;98754.13;;;17.12;71.72
49825;BME280;35714;55.708;37.478;2023-06-24T02:10:14;98757.75;;;17.07;71.92
49825;BME280;35714;55.708;37.478;2023-06-24T02:12:42;98759.13;;;17.05;72.18
49825;BME280;35714;55.708;37.478;2023-06-24T02:15:10;98756.69;;;17.03;72.29
49825;BME280;35714;55.708;37.478;2023-06-24T02:17:37;98753.66;;;17.05;72.32
49825;BME280;35714;55.708;37.478;2023-06-24T02:20:25;98765.13;;;17.07;72.19
49825;BME280;35714;55.708;37.478;2023-06-24T02:22:53;98767.28;;;17.10;72.27
49825;BME280;35714;55.708;37.478;2023-06-24T02:25:22;98758.53;;;17.08;72.46
49825;BME280;35714;55.708;37.478;2023-06-24T02:27:50;98768.53;;;17.18;72.51
49825;BME280;35714;55.708;37.478;2023-06-24T02:30:16;98772.03;;;17.23;71.48
49825;BME280;35714;55.708;37.478;2023-06-24T02:32:42;98764.34;;;17.25;71.66
49825;BME280;35714;55.708;37.478;2023-06-24T02:35:08;98769.22;;;17.28;71.19
49825;BME280;35714;55.708;37.478;2023-06-24T02:37:34;98763.75;;;17.28;71.11
49825;BME280;35714;55.708;37.478;2023-06-24T02:40:01;98763.16;;;17.31;70.79
49825;BME280;35714;55.708;37.478;2023-06-24T02:42:29;98769.22;;;17.28;69.91
49825;BME280;35714;55.708;37.478;2023-06-24T02:44:55;98766.56;;;17.23;70.39
49825;BME280;35714;55.708;37.478;2023-06-24T02:47:21;98765.72;;;17.23;70.43
49825;BME280;35714;55.708;37.478;2023-06-24T02:49:48;98766.47;;;17.28;70.53
49825;BME280;35714;55.708;37.478;2023-06-24T02:52:15;98759.06;;;17.29;70.64
49825;BME280;35714;55.708;37.478;2023-06-24T02:54:41;98765.00;;;17.36;70.43
49825;BME280;35714;55.708;37.478;2023-06-24T02:57:19;98768.63;;;17.31;69.49
49825;BME280;35714;55.708;37.478;2023-06-24T03:00:08;98775.00;;;17.27;69.74
49825;BME280;35714;55.708;37.478;2023-06-24T03:02:56;98778.50;;;17.33;70.31
49825;BME280;35714;55.708;37.478;2023-06-24T03:05:23;98770.78;;;17.35;70.36
49825;BME280;35714;55.708;37.478;2023-06-24T03:07:53;98772.94;;;17.38;69.88
49825;BME280;35714;55.708;37.478;2023-06-24T03:10:20;98777.81;;;17.41;69.78
49825;BME280;35714;55.708;37.478;2023-06-24T03:12:48;98763.03;;;17.42;70.07
49825;BME280;35714;55.708;37.478;2023-06-24T03:15:14;98767.66;;;17.41;69.93
49825;BME280;35714;55.708;37.478;2023-06-24T03:17:39;98772.34;;;17.41;69.85
49825;BME280;35714;55.708;37.478;2023-06-24T03:20:06;98773.97;;;17.42;70.00
49825;BME280;35714;55.708;37.478;2023-06-24T03:22:32;98767.91;;;17.45;69.89
49825;BME280;35714;55.708;37.478;2023-06-24T03:24:58;98765.97;;;17.45;69.83
49825;BME280;35714;55.708;37.478;2023-06-24T03:27:24;98766.69;;;17.51;69.17
49825;BME280;35714;55.708;37.478;2023-06-24T03:29:50;98770.66;;;17.45;68.63
49825;BME280;35714;55.708;37.478;2023-06-24T03:32:17;98770.13;;;17.43;68.86
49825;BME280;35714;55.708;37.478;2023-06-24T03:34:43;98777.22;;;17.44;68.66
49825;BME280;35714;55.708;37.478;2023-06-24T03:37:10;98777.22;;;17.44;68.57
49825;BME280;35714;55.708;37.478;2023-06-24T03:39:40;98762.56;;;17.35;68.44
49825;BME280;35714;55.708;37.478;2023-06-24T03:42:06;98772.34;;;17.41;68.43
49825;BME280;35714;55.708;37.478;2023-06-24T03:44:32;98777.53;;;17.42;67.77
49825;BME280;35714;55.708;37.478;2023-06-24T03:46:58;98774.78;;;17.42;68.01
49825;BME280;35714;55.708;37.478;2023-06-24T03:49:24;98759.16;;;17.43;67.60
49825;BME280;35714;55.708;37.478;2023-06-24T03:51:50;98767.66;;;17.41;67.69
49825;BME280;35714;55.708;37.478;2023-06-24T03:54:15;98772.34;;;17.41;66.91
49825;BME280;35714;55.708;37.478;2023-06-24T03:56:41;98782.25;;;17.37;67.18
49825;BME280;35714;55.708;37.478;2023-06-24T03:59:07;98773.53;;;17.35;67.08
49825;BME280;35714;55.708;37.478;2023-06-24T04:01:33;98789.38;;;17.38;67.60
49825;BME280;35714;55.708;37.478;2023-06-24T04:03:59;98783.31;;;17.41;67.47
49825;BME280;35714;55.708;37.478;2023-06-24T04:06:25;98785.75;;;17.42;67.10
49825;BME280;35714;55.708;37.478;2023-06-24T04:08:52;98781.06;;;17.43;67.31
49825;BME280;35714;55.708;37.478;2023-06-24T04:11:19;98784.34;;;17.45;67.62
49825;BME280;35714;55.708;37.478;2023-06-24T04:13:45;98794.69;;;17.48;67.69
49825;BME280;35714;55.708;37.478;2023-06-24T04:16:11;98787.31;;;17.48;67.38
49825;BME280;35714;55.708;37.478;2023-06-24T04:18:37;98787.81;;;17.50;67.55
49825;BME280;35714;55.708;37.478;2023-06-24T04:21:06;98795.66;;;17.57;67.42
49825;BME280;35714;55.708;37.478;2023-06-24T04:23:32;98798.41;;;17.57;67.28
49825;BME280;35714;55.708;37.478;2023-06-24T04:25:59;98792.13;;;17.57;67.64
49825;BME280;35714;55.708;37.478;2023-06-24T04:28:24;98797.59;;;17.57;68.00
49825;BME280;35714;55.708;37.478;2023-06-24T04:30:51;98793.81;;;17.53;67.55
49825;BME280;35714;55.708;37.478;2023-06-24T04:33:17;98811.16;;;17.67;67.56
49825;BME280;35714;55.708;37.478;2023-06-24T04:35:44;98812.34;;;17.80;67.08
49825;BME280;35714;55.708;37.478;2023-06-24T04:38:10;98813.25;;;17.94;66.86
49825;BME280;35714;55.708;37.478;2023-06-24T04:40:36;98813.00;;;18.10;65.54
49825;BME280;35714;55.708;37.478;2023-06-24T04:43:02;98819.72;;;18.17;65.94
49825;BME280;35714;55.708;37.478;2023-06-24T04:45:28;98802.53;;;18.12;65.10
49825;BME280;35714;55.708;37.478;2023-06-24T04:47:54;98817.19;;;18.21;64.24
49825;BME280;35714;55.708;37.478;2023-06-24T04:50:20;98820.53;;;18.18;64.38
49825;BME280;35714;55.708;37.478;2023-06-24T04:52:52;98824.03;;;18.04;63.88
49825;BME280;35714;55.708;37.478;2023-06-24T04:55:18;98828.50;;;18.00;64.46
49825;BME280;35714;55.708;37.478;2023-06-24T04:57:45;98828.28;;;17.97;64.34
49825;BME280;35714;55.708;37.478;2023-06-24T05:00:11;98831.34;;;17.95;64.32
49825;BME280;35714;55.708;37.478;2023-06-24T05:02:36;98830.88;;;17.88;64.83
49825;BME280;35714;55.708;37.478;2023-06-24T05:05:02;98824.31;;;17.84;65.03
49825;BME280;35714;55.708;37.478;2023-06-24T05:07:30;98833.53;;;17.93;64.96
49825;BME280;35714;55.708;37.478;2023-06-24T05:09:56;98835.28;;;17.89;63.87
49825;BME280;35714;55.708;37.478;2023-06-24T05:12:22;98821.75;;;17.74;63.94
49825;BME280;35714;55.708;37.478;2023-06-24T05:14:51;98828.94;;;17.70;64.53
49825;BME280;35714;55.708;37.478;2023-06-24T05:17:20;98825.31;;;17.74;64.55
49825;BME280;35714;55.708;37.478;2023-06-24T05:19:46;98828.25;;;17.78;63.86
49825;BME280;35714;55.708;37.478;2023-06-24T05:22:11;98838.03;;;17.84;63.58
49825;BME280;35714;55.708;37.478;2023-06-24T05:24:37;98817.38;;;17.73;63.88
49825;BME280;35714;55.708;37.478;2023-06-24T05:27:04;98835.16;;;17.75;63.50
49825;BME280;35714;55.708;37.478;2023-06-24T05:29:31;98825.69;;;17.67;63.89
49825;BME280;35714;55.708;37.478;2023-06-24T05:31:57;98817.09;;;17.55;63.93
49825;BME280;35714;55.708;37.478;2023-06-24T05:34:22;98826.66;;;17.58;63.90
49825;BME280;35714;55.708;37.478;2023-06-24T05:36:48;98828.63;;;17.52;64.04
49825;BME280;35714;55.708;37.478;2023-06-24T05:39:14;98834.41;;;17.50;64.82
49825;BME280;35714;55.708;37.478;2023-06-24T05:41:39;98825.31;;;17.55;64.52
49825;BME280;35714;55.708;37.478;2023-06-24T05:44:09;98833.75;;;17.59;64.62
49825;BME280;35714;55.708;37.478;2023-06-24T05:46:37;98834.59;;;17.59;64.97
49825;BME280;35714;55.708;37.478;2023-06-24T05:49:03;98829.53;;;17.66;64.14
49825;BME280;35714;55.708;37.478;2023-06-24T05:51:29;98834.88;;;17.77;64.03
49825;BME280;35714;55.708;37.478;2023-06-24T05:53:54;98835.28;;;17.89;63.83
49825;BME280;35714;55.708;37.478;2023-06-24T05:56:21;98833.34;;;17.90;63.34
49825;BME280;35714;55.708;37.478;2023-06-24T05:58:48;98843.72;;;17.93;63.26
49825;BME280;35714;55.708;37.478;2023-06-24T06:01:14;98830.50;;;17.95;63.50
49825;BME280;35714;55.708;37.478;2023-06-24T06:03:40;98836.66;;;18.06;63.04
49825;BME280;35714;55.708;37.478;2023-06-24T06:06:06;98830.81;;;17.93;63.19
49825;BME280;35714;55.708;37.478;2023-06-24T06:08:33;98841.63;;;18.03;62.86
49825;BME280;35714;55.708;37.478;2023-06-24T06:11:00;98841.03;;;18.07;63.27
49825;BME280;35714;55.708;37.478;2023-06-24T06:13:28;98848.06;;;18.13;62.78
49825;BME280;35714;55.708;37.478;2023-06-24T06:15:54;98844.19;;;18.14;62.72
49825;BME280;35714;55.708;37.478;2023-06-24T06:18:20;98853.97;;;18.20;63.14
49825;BME280;35714;55.708;37.478;2023-06-24T06:20:46;98855.59;;;18.21;63.28
49825;BME280;35714;55.708;37.478;2023-06-24T06:23:11;98860.72;;;18.28;63.42
49825;BME280;35714;55.708;37.478;2023-06-24T06:25:37;98855.88;;;18.38;63.28
49825;BME280;35714;55.708;37.478;2023-06-24T06:28:04;98863.00;;;18.39;62.51
49825;BME280;35714;55.708;37.478;2023-06-24T06:30:30;98859.91;;;18.27;62.69
49825;BME280;35714;55.708;37.478;2023-06-24T06:32:56;98864.59;;;18.27;63.07
49825;BME280;35714;55.708;37.478;2023-06-24T06:35:21;98861.00;;;18.26;62.98
49825;BME280;35714;55.708;37.478;2023-06-24T06:37:47;98872.56;;;18.23;63.10
49825;BME280;35714;55.708;37.478;2023-06-24T06:40:20;98858.44;;;18.16;63.11
49825;BME280;35714;55.708;37.478;2023-06-24T06:42:46;98866.22;;;18.09;63.54
49825;BME280;35714;55.708;37.478;2023-06-24T06:45:12;98863.47;;;18.09;62.95
49825;BME280;35714;55.708;37.478;2023-06-24T06:47:38;98858.97;;;17.99;63.76
49825;BME280;35714;55.708;37.478;2023-06-24T06:50:04;98857.41;;;18.12;64.15
49825;BME280;35714;55.708;37.478;2023-06-24T06:52:30;98863.97;;;18.30;64.03
49825;BME280;35714;55.708;37.478;2023-06-24T06:54:56;98851.03;;;18.49;63.41
49825;BME280;35714;55.708;37.478;2023-06-24T06:57:22;98852.59;;;18.69;62.85
49825;BME280;35714;55.708;37.478;2023-06-24T06:59:48;98860.00;;;18.83;62.55
49825;BME280;35714;55.708;37.478;2023-06-24T07:02:17;98870.84;;;18.93;62.14
49825;BME280;35714;55.708;37.478;2023-06-24T07:04:43;98858.22;;;18.92;61.98
49825;BME280;35714;55.708;37.478;2023-06-24T07:07:09;98858.34;;;19.01;62.05
49825;BME280;35714;55.708;37.478;2023-06-24T07:09:34;98848.88;;;19.07;61.99
49825;BME280;35714;55.708;37.478;2023-06-24T07:12:01;98857.63;;;19.23;61.95
49825;BME280;35714;55.708;37.478;2023-06-24T07:14:27;98856.19;;;19.39;61.41
49825;BME280;35714;55.708;37.478;2023-06-24T07:16:53;98864.22;;;19.50;60.91
49825;BME280;35714;55.708;37.478;2023-06-24T07:19:18;98863.00;;;19.56;60.26
49825;BME280;35714;55.708;37.478;2023-06-24T07:21:44;98871.13;;;19.61;59.23
49825;BME280;35714;55.708;37.478;2023-06-24T07:24:10;98863.88;;;19.65;59.34
49825;BME280;35714;55.708;37.478;2023-06-24T07:26:35;98867.63;;;19.69;58.67
49825;BME280;35714;55.708;37.478;2023-06-24T07:29:01;98878.63;;;19.69;58.75
49825;BME280;35714;55.708;37.478;2023-06-24T07:31:27;98879.56;;;19.64;58.87
49825;BME280;35714;55.708;37.478;2023-06-24T07:33:53;98873.88;;;19.61;58.46
49825;BME280;35714;55.708;37.478;2023-06-24T07:36:18;98871.25;;;19.56;58.90
49825;BME280;35714;55.708;37.478;2023-06-24T07:38:44;98880.38;;;19.65;59.12
49825;BME280;35714;55.708;37.478;2023-06-24T07:41:10;98875.88;;;19.69;58.48
49825;BME280;35714;55.708;37.478;2023-06-24T07:43:36;98884.44;;;19.68;58.94
49825;BME280;35714;55.708;37.478;2023-06-24T07:46:01;98898.38;;;19.71;59.17
49825;BME280;35714;55.708;37.478;2023-06-24T07:48:27;98893.84;;;19.67;59.27
49825;BME280;35714;55.708;37.478;2023-06-24T07:50:53;98896.47;;;19.72;58.84
49825;BME280;35714;55.708;37.478;2023-06-24T07:53:19;98894.22;;;19.74;58.34
49825;BME280;35714;55.708;37.478;2023-06-24T07:55:44;98903.81;;;19.76;58.79
49825;BME280;35714;55.708;37.478;2023-06-24T07:58:10;98902.16;;;19.75;58.59
49825;BME280;35714;55.708;37.478;2023-06-24T08:00:36;98904.81;;;19.80;58.63
49825;BME280;35714;55.708;37.478;2023-06-24T08:03:03;98905.72;;;19.90;58.71
49825;BME280;35714;55.708;37.478;2023-06-24T08:05:29;98902.13;;;20.03;58.34
49825;BME280;35714;55.708;37.478;2023-06-24T08:07:54;98898.63;;;20.11;58.04
49825;BME280;35714;55.708;37.478;2023-06-24T08:10:20;98911.28;;;20.12;57.81
49825;BME280;35714;55.708;37.478;2023-06-24T08:12:46;98914.97;;;20.08;57.55
49825;BME280;35714;55.708;37.478;2023-06-24T08:15:12;98909.84;;;20.01;57.63
49825;BME280;35714;55.708;37.478;2023-06-24T08:17:38;98915.00;;;19.94;58.26
49825;BME280;35714;55.708;37.478;2023-06-24T08:20:04;98919.09;;;19.82;58.19
49825;BME280;35714;55.708;37.478;2023-06-24T08:22:31;98908.72;;;19.79;58.49
49825;BME280;35714;55.708;37.478;2023-06-24T08:24:58;98918.78;;;19.70;58.52
49825;BME280;35714;55.708;37.478;2023-06-24T08:27:24;98912.13;;;19.71;58.48
49825;BME280;35714;55.708;37.478;2023-06-24T08:29:49;98922.75;;;19.64;58.53
49825;BME280;35714;55.708;37.478;2023-06-24T08:32:15;98902.72;;;19.50;58.68
49825;BME280;35714;55.708;37.478;2023-06-24T08:34:41;98927.84;;;19.57;58.71
49825;BME280;35714;55.708;37.478;2023-06-24T08:37:07;98924.00;;;19.44;58.91
49825;BME280;35714;55.708;37.478;2023-06-24T08:39:33;98933.16;;;19.39;59.14
49825;BME280;35714;55.708;37.478;2023-06-24T08:41:59;98933.88;;;19.31;59.03
49825;BME280;35714;55.708;37.478;2023-06-24T08:44:24;98931.13;;;19.31;59.60
49825;BME280;35714;55.708;37.478;2023-06-24T08:46:50;98937.22;;;19.28;59.64
49825;BME280;35714;55.708;37.478;2023-06-24T08:52:02;98945.59;;;19.23;59.75
49825;BME280;35714;55.708;37.478;2023-06-24T08:54:28;98933.66;;;19.14;60.33
49825;BME280;35714;55.708;37.478;2023-06-24T08:56:54;98954.09;;;19.07;60.27
49825;BME280;35714;55.708;37.478;2023-06-24T08:59:19;98946.56;;;18.99;60.50
49825;BME280;35714;55.708;37.478;2023-06-24T09:01:46;98944.94;;;18.98;60.64
49825;BME280;35714;55.708;37.478;2023-06-24T09:04:12;98951.47;;;19.02;60.65
49825;BME280;35714;55.708;37.478;2023-06-24T09:06:38;98954.09;;;19.07;61.05
49825;BME280;35714;55.708;37.478;2023-06-24T09:09:04;98956.03;;;19.07;60.54
49825;BME280;35714;55.708;37.478;2023-06-24T09:11:30;98957.34;;;19.09;60.56
49825;BME280;35714;55.708;37.478;2023-06-24T09:14:10;98952.91;;;19.14;61.15
49825;BME280;35714;55.708;37.478;2023-06-24T09:17:00;98965.94;;;19.22;60.58
49825;BME280;35714;55.708;37.478;2023-06-24T09:24:03;98946.50;;;19.32;60.06
49825;BME280;35714;55.708;37.478;2023-06-24T09:28:12;98960.84;;;19.43;59.53
49825;BME280;35714;55.708;37.478;2023-06-24T09:30:41;98960.31;;;19.27;59.70
49825;BME280;35714;55.708;37.478;2023-06-24T09:33:10;98972.47;;;19.26;59.97
49825;BME280;35714;55.708;37.478;2023-06-24T09:35:36;98981.09;;;19.19;60.24
49825;BME280;35714;55.708;37.478;2023-06-24T09:38:03;98992.69;;;19.16;60.40
49825;BME280;35714;55.708;37.478;2023-06-24T09:40:28;98987.47;;;19.15;60.84
49825;BME280;35714;55.708;37.478;2023-06-24T09:42:58;98991.28;;;19.19;61.11
49825;BME280;35714;55.708;37.478;2023-06-24T09:45:27;98992.81;;;19.25;60.91
49825;BME280;35714;55.708;37.478;2023-06-24T09:47:55;99002.00;;;19.34;60.83
49825;BME280;35714;55.708;37.478;2023-06-24T09:50:21;98999.63;;;19.41;60.57
49825;BME280;35714;55.708;37.478;2023-06-24T09:52:48;99004.84;;;19.43;60.08
49825;BME280;35714;55.708;37.478;2023-06-24T09:55:16;99013.19;;;19.38;60.42
49825;BME280;35714;55.708;37.478;2023-06-24T09:57:44;99015.44;;;19.36;60.32
49825;BME280;35714;55.708;37.478;2023-06-24T10:00:15;99025.19;;;19.28;60.46
49825;BME280;35714;55.708;37.478;2023-06-24T10:02:42;99017.03;;;19.23;60.82
49825;BME280;35714;55.708;37.478;2023-06-24T10:05:08;99024.25;;;19.19;60.78
49825;BME280;35714;55.708;37.478;2023-06-24T10:07:34;99026.50;;;19.17;61.15
49825;BME280;35714;55.708;37.478;2023-06-24T10:10:02;99028.63;;;19.20;61.18
49825;BME280;35714;55.708;37.478;2023-06-24T10:12:31;99026.69;;;19.20;61.16
49825;BME280;35714;55.708;37.478;2023-06-24T10:14:58;99030.69;;;19.28;60.95
49825;BME280;35714;55.708;37.478;2023-06-24T10:17:25;99033.34;;;19.33;61.27
49825;BME280;35714;55.708;37.478;2023-06-24T10:19:52;99027.47;;;19.40;60.97
49825;BME280;35714;55.708;37.478;2023-06-24T10:22:24;99037.44;;;19.50;60.85
49825;BME280;35714;55.708;37.478;2023-06-24T10:24:52;99040.50;;;19.48;60.59
49825;BME280;35714;55.708;37.478;2023-06-24T10:27:20;99035.69;;;19.54;60.27
49825;BME280;35714;55.708;37.478;2023-06-24T10:29:53;99036.25;;;19.56;60.15
49825;BME280;35714;55.708;37.478;2023-06-24T10:32:19;99039.00;;;19.56;60.11
49825;BME280;35714;55.708;37.478;2023-06-24T10:34:47;99041.19;;;19.54;60.23
49825;BME280;35714;55.708;37.478;2023-06-24T10:37:20;99045.00;;;19.58;60.46
49825;BME280;35714;55.708;37.478;2023-06-24T10:44:46;99050.19;;;19.73;60.13
49825;BME280;35714;55.708;37.478;2023-06-24T10:47:11;99052.13;;;19.73;59.81
49825;BME280;35714;55.708;37.478;2023-06-24T10:49:37;99043.66;;;19.69;60.23
49825;BME280;35714;55.708;37.478;2023-06-24T10:52:03;99047.63;;;19.63;60.21
49825;BME280;35714;55.708;37.478;2023-06-24T10:54:29;99053.25;;;19.58;60.08
49825;BME280;35714;55.708;37.478;2023-06-24T10:56:55;99061.28;;;19.54;60.19
49825;BME280;35714;55.708;37.478;2023-06-24T10:59:21;99062.41;;;19.53;60.14
49825;BME280;35714;55.708;37.478;2023-06-24T11:01:53;99053.75;;;19.60;60.38
49825;BME280;35714;55.708;37.478;2023-06-24T11:04:19;99065.00;;;19.77;60.28
49825;BME280;35714;55.708;37.478;2023-06-24T11:07:01;99063.16;;;19.87;59.89
49825;BME280;35714;55.708;37.478;2023-06-24T11:09:27;99058.56;;;19.82;59.37
49825;BME280;35714;55.708;37.478;2023-06-24T11:11:53;99066.03;;;19.81;59.62
49825;BME280;35714;55.708;37.478;2023-06-24T11:14:20;99063.38;;;19.76;59.53
49825;BME280;35714;55.708;37.478;2023-06-24T11:16:46;99061.28;;;19.68;59.78
49825;BME280;35714;55.708;37.478;2023-06-24T11:19:12;99065.38;;;19.71;59.89
49825;BME280;35714;55.708;37.478;2023-06-24T11:21:37;99067.66;;;19.82;59.66
49825;BME280;35714;55.708;37.478;2023-06-24T11:24:03;99070.31;;;20.15;59.51
49825;BME280;35714;55.708;37.478;2023-06-24T11:26:29;99065.13;;;20.50;58.74
49825;BME280;35714;55.708;37.478;2023-06-24T11:28:55;99067.19;;;20.81;57.94
49825;BME280;35714;55.708;37.478;2023-06-24T11:31:27;99064.72;;;21.16;57.47
49825;BME280;35714;55.708;37.478;2023-06-24T11:33:53;99069.25;;;21.43;56.67
49825;BME280;35714;55.708;37.478;2023-06-24T11:36:19;99069.44;;;21.70;55.98
49825;BME280;35714;55.708;37.478;2023-06-24T11:38:46;99075.34;;;21.94;55.27
49825;BME280;35714;55.708;37.478;2023-06-24T11:41:13;99067.47;;;22.19;54.56
49825;BME280;35714;55.708;37.478;2023-06-24T11:43:45;99074.06;;;22.76;53.96
49825;BME280;35714;55.708;37.478;2023-06-24T11:46:21;99073.09;;;23.06;52.53
49825;BME280;35714;55.708;37.478;2023-06-24T11:48:47;99081.06;;;22.99;52.39
49825;BME280;35714;55.708;37.478;2023-06-24T11:51:13;99077.00;;;22.70;52.17
49825;BME280;35714;55.708;37.478;2023-06-24T11:53:43;99084.47;;;22.44;52.66
49825;BME280;35714;55.708;37.478;2023-06-24T11:56:11;99083.25;;;22.19;53.25
49825;BME280;35714;55.708;37.478;2023-06-24T11:58:38;99090.31;;;22.02;53.76
49825;BME280;35714;55.708;37.478;2023-06-24T12:01:06;99090.31;;;21.93;53.90
49825;BME280;35714;55.708;37.478;2023-06-24T12:03:32;99091.09;;;21.85;54.04
49825;BME280;35714;55.708;37.478;2023-06-24T12:05:59;99094.25;;;21.70;53.83
49825;BME280;35714;55.708;37.478;2023-06-24T12:08:25;99104.38;;;21.52;54.16
49825;BME280;35714;55.708;37.478;2023-06-24T12:10:51;99092.56;;;21.37;54.46
49825;BME280;35714;55.708;37.478;2023-06-24T12:13:17;99094.66;;;21.32;54.37
49825;BME280;35714;55.708;37.478;2023-06-24T12:15:43;99090.13;;;21.36;54.83
49825;BME280;35714;55.708;37.478;2023-06-24T12:18:09;99094.50;;;21.59;54.27
49825;BME280;35714;55.708;37.478;2023-06-24T12:20:35;99091.81;;;22.08;54.00
49825;BME280;35714;55.708;37.478;2023-06-24T12:23:02;99104.00;;;22.74;52.72
49825;BME280;35714;55.708;37.478;2023-06-24T12:25:31;99103.34;;;23.29;51.56
49825;BME280;35714;55.708;37.478;2023-06-24T12:27:57;99098.75;;;23.51;49.17
49825;BME280;35714;55.708;37.478;2023-06-24T12:30:24;99104.47;;;23.46;48.98
49825;BME280;35714;55.708;37.478;2023-06-24T12:32:50;99098.16;;;23.36;48.75
49825;BME280;35714;55.708;37.478;2023-06-24T12:35:16;99093.78;;;23.27;48.40
49825;BME280;35714;55.708;37.478;2023-06-24T12:37:42;99098.50;;;23.17;48.67
49825;BME280;35714;55.708;37.478;2023-06-24T12:40:10;99102.06;;;23.09;48.68
49825;BME280;35714;55.708;37.478;2023-06-24T12:42:36;99108.25;;;22.97;48.51
49825;BME280;35714;55.708;37.478;2023-06-24T12:45:02;99102.88;;;22.83;48.52
49825;BME280;35714;55.708;37.478;2023-06-24T12:47:32;99104.47;;;22.58;48.55
49825;BME280;35714;55.708;37.478;2023-06-24T12:49:58;99107.50;;;22.30;49.06
49825;BME280;35714;55.708;37.478;2023-06-24T12:52:24;99111.59;;;22.02;49.51
49825;BME280;35714;55.708;37.478;2023-06-24T12:54:49;99114.75;;;21.77;50.07
49825;BME280;35714;55.708;37.478;2023-06-24T12:57:15;99120.28;;;21.55;50.68
49825;BME280;35714;55.708;37.478;2023-06-24T12:59:41;99122.13;;;21.37;51.55
49825;BME280;35714;55.708;37.478;2023-06-24T13:02:07;99115.53;;;21.24;51.74
49825;BME280;35714;55.708;37.478;2023-06-24T13:04:33;99124.19;;;21.08;52.18
49825;BME280;35714;55.708;37.478;2023-06-24T13:06:58;99126.97;;;20.95;52.24
49825;BME280;35714;55.708;37.478;2023-06-24T13:09:24;99128.97;;;20.80;52.62
49825;BME280;35714;55.708;37.478;2023-06-24T13:11:50;99137.44;;;20.70;53.21
49825;BME280;35714;55.708;37.478;2023-06-24T13:14:16;99135.41;;;20.62;52.99
49825;BME280;35714;55.708;37.478;2023-06-24T13:16:42;99146.53;;;20.57;53.62